Time;durP1;ratioP1;P1;durP2;ratioP2;P2;SDS_P1;SDS_P2;PMS_P1;PMS_P2;Temp;Humidity;BMP_temperature;BMP_pressure;BME280_temperature;BME280_humidity;BME280_pressure;Samples;Min_cycle;Max_cycle;Signal;HPM_P1;HPM_P2
2021/07/14 00:01:14;;;;;;;78.72;27.25;;;;;;;;;;5015409;28;20029;-58
2021/07/14 00:03:42;;;;;;;80.63;27.08;;;;;;;;;;5031549;28;20159;-58
2021/07/14 00:06:10;;;;;;;70.85;27.05;;;;;;;;;;5034244;28;20113;-57
2021/07/14 00:08:35;;;;;;;72.13;26.42;;;;;;;;;;5015483;28;20037;-57
2021/07/14 00:11:03;;;;;;;75.75;25.17;;;;;;;;;;5034036;28;20115;-57
2021/07/14 00:24:31;;;;;;;64.60;26.63;;;;;;;;;;5033582;28;20037;-57
2021/07/14 00:26:57;;;;;;;79.40;27.33;;;;;;;;;;5015261;28;20897;-57
2021/07/14 00:29:22;;;;;;;82.93;27.17;;;;;;;;;;5031427;28;20037;-57
2021/07/14 00:31:50;;;;;;;86.00;28.05;;;;;;;;;;5034654;28;20802;-58
2021/07/14 00:34:15;;;;;;;88.47;26.17;;;;;;;;;;5014481;28;20040;-59
2021/07/14 00:36:43;;;;;;;83.15;26.85;;;;;;;;;;5031854;28;20037;-59
2021/07/14 00:39:09;;;;;;;97.82;27.05;;;;;;;;;;5014982;28;21980;-59
2021/07/14 00:41:37;;;;;;;79.25;27.85;;;;;;;;;;5014377;28;20041;-59
2021/07/14 00:44:05;;;;;;;90.13;28.58;;;;;;;;;;5005979;28;20037;-58
2021/07/14 00:46:30;;;;;;;92.80;27.23;;;;;;;;;;5034009;28;20037;-58
2021/07/14 00:48:58;;;;;;;93.45;28.70;;;;;;;;;;5032699;28;20130;-58
2021/07/14 00:51:25;;;;;;;113.85;32.15;;;;;;;;;;5031233;28;20070;-58
2021/07/14 00:53:50;;;;;;;112.65;32.95;;;;;;;;;;5031681;28;20403;-59
2021/07/14 00:56:16;;;;;;;113.15;30.52;;;;;;;;;;5033344;28;20033;-60
2021/07/14 00:58:44;;;;;;;124.53;33.63;;;;;;;;;;5029763;28;20025;-59
2021/07/14 01:01:16;;;;;;;128.50;34.58;;;;;;;;;;5014540;28;20066;-58
2021/07/14 01:03:58;;;;;;;130.68;35.28;;;;;;;;;;5019069;28;20043;-58
2021/07/14 01:06:34;;;;;;;129.00;33.83;;;;;;;;;;5029397;28;20032;-58
2021/07/14 01:09:03;;;;;;;125.75;33.42;;;;;;;;;;5031391;28;20037;-58
2021/07/14 01:11:32;;;;;;;124.80;33.80;;;;;;;;;;4999025;28;20028;-59
2021/07/14 01:14:09;;;;;;;115.18;32.13;;;;;;;;;;5031058;28;20776;-60
2021/07/14 01:16:40;;;;;;;137.70;32.65;;;;;;;;;;5029966;28;20060;-59
2021/07/14 01:19:15;;;;;;;123.22;30.70;;;;;;;;;;4986333;28;20037;-59
2021/07/14 01:21:41;;;;;;;122.07;32.00;;;;;;;;;;5014718;28;20127;-57
2021/07/14 01:24:22;;;;;;;126.35;30.70;;;;;;;;;;5032664;28;20021;-59
2021/07/14 01:27:24;;;;;;;130.75;29.83;;;;;;;;;;5032438;28;20032;-59
2021/07/14 01:29:51;;;;;;;142.38;32.08;;;;;;;;;;5013341;28;20032;-59
2021/07/14 01:32:20;;;;;;;128.13;33.17;;;;;;;;;;5015072;28;20055;-59
2021/07/14 01:34:48;;;;;;;109.65;29.98;;;;;;;;;;5031672;28;20033;-59
2021/07/14 01:37:16;;;;;;;108.13;32.28;;;;;;;;;;5030070;28;20927;-60
2021/07/14 01:39:45;;;;;;;110.30;31.20;;;;;;;;;;5016905;28;20028;-59
2021/07/14 01:42:14;;;;;;;106.93;29.15;;;;;;;;;;5035834;28;20033;-58
2021/07/14 01:44:40;;;;;;;108.38;29.58;;;;;;;;;;5035410;28;20052;-58
2021/07/14 01:47:10;;;;;;;112.45;31.42;;;;;;;;;;5006475;28;20055;-59
2021/07/14 01:49:54;;;;;;;100.78;27.00;;;;;;;;;;5034950;28;20052;-58
2021/07/14 01:52:22;;;;;;;88.53;26.77;;;;;;;;;;5036368;28;20044;-58
2021/07/14 01:54:55;;;;;;;88.15;24.35;;;;;;;;;;5033511;28;20021;-59
2021/07/14 01:57:25;;;;;;;86.57;26.48;;;;;;;;;;5035178;28;20032;-59
2021/07/14 01:59:53;;;;;;;80.40;23.30;;;;;;;;;;5030844;28;20150;-60
2021/07/14 02:02:25;;;;;;;76.38;22.60;;;;;;;;;;5006298;28;20033;-60
2021/07/14 02:04:52;;;;;;;66.55;22.75;;;;;;;;;;5016493;28;20185;-60
2021/07/14 02:07:24;;;;;;;70.15;23.65;;;;;;;;;;4992407;28;20082;-59
2021/07/14 02:09:50;;;;;;;69.15;23.08;;;;;;;;;;5035340;28;20053;-58
2021/07/14 02:12:28;;;;;;;78.95;23.05;;;;;;;;;;5034181;28;20021;-59
2021/07/14 02:15:13;;;;;;;72.60;22.98;;;;;;;;;;5020128;28;20064;-59
2021/07/14 02:18:02;;;;;;;62.25;22.20;;;;;;;;;;5033317;28;20045;-59
2021/07/14 02:20:27;;;;;;;81.25;24.00;;;;;;;;;;5020624;28;20102;-60
2021/07/14 02:22:55;;;;;;;84.13;22.05;;;;;;;;;;5016423;28;20124;-60
2021/07/14 02:25:22;;;;;;;78.32;23.02;;;;;;;;;;5017126;28;20041;-59
2021/07/14 02:27:49;;;;;;;72.97;21.90;;;;;;;;;;5033249;28;20112;-59
2021/07/14 02:30:19;;;;;;;84.72;23.95;;;;;;;;;;5033191;28;20399;-59
2021/07/14 02:32:45;;;;;;;92.53;24.27;;;;;;;;;;5034150;28;21027;-59
2021/07/14 02:35:16;;;;;;;71.10;23.35;;;;;;;;;;5034464;28;21112;-58
2021/07/14 02:38:00;;;;;;;75.03;22.80;;;;;;;;;;5000278;28;20037;-60
2021/07/14 02:40:32;;;;;;;97.93;24.67;;;;;;;;;;5004839;28;20085;-60
2021/07/14 02:43:06;;;;;;;77.38;24.15;;;;;;;;;;5034316;28;20054;-59
2021/07/14 02:45:38;;;;;;;80.22;24.55;;;;;;;;;;5034732;28;20040;-60
2021/07/14 02:48:04;;;;;;;74.30;23.17;;;;;;;;;;5015203;28;20052;-59
2021/07/14 02:50:34;;;;;;;66.80;24.33;;;;;;;;;;5016041;28;20100;-62
2021/07/14 02:53:07;;;;;;;80.00;24.70;;;;;;;;;;5017076;28;20128;-61
2021/07/14 02:55:36;;;;;;;74.32;25.45;;;;;;;;;;5032741;28;20044;-63
2021/07/14 02:58:04;;;;;;;80.65;24.10;;;;;;;;;;5032068;28;20111;-61
2021/07/14 03:00:35;;;;;;;74.03;25.55;;;;;;;;;;5032387;28;20112;-60
2021/07/14 03:03:03;;;;;;;99.28;27.15;;;;;;;;;;5031873;28;20519;-60
2021/07/14 03:05:34;;;;;;;81.20;26.55;;;;;;;;;;5032996;28;20040;-60
2021/07/14 03:08:09;;;;;;;74.00;25.77;;;;;;;;;;5015930;28;20742;-60
2021/07/14 03:10:35;;;;;;;102.40;28.63;;;;;;;;;;5016899;28;20439;-60
2021/07/14 03:13:03;;;;;;;94.53;28.80;;;;;;;;;;5015300;28;20059;-60
2021/07/14 03:15:32;;;;;;;83.53;28.75;;;;;;;;;;5014658;28;20546;-61
2021/07/14 03:18:00;;;;;;;90.47;28.63;;;;;;;;;;5034471;28;20024;-61
2021/07/14 03:20:25;;;;;;;86.20;30.13;;;;;;;;;;5034000;28;20025;-60
2021/07/14 03:22:51;;;;;;;85.88;31.10;;;;;;;;;;5034981;28;20094;-59
2021/07/14 03:25:18;;;;;;;76.78;30.65;;;;;;;;;;5016437;28;20041;-60
2021/07/14 03:27:46;;;;;;;87.65;29.52;;;;;;;;;;5018522;28;20029;-61
2021/07/14 03:30:17;;;;;;;72.68;28.15;;;;;;;;;;5030006;28;20036;-61
2021/07/14 03:32:47;;;;;;;78.95;28.85;;;;;;;;;;5034184;28;20143;-61
2021/07/14 03:35:16;;;;;;;71.82;28.25;;;;;;;;;;5031631;28;20044;-61
2021/07/14 03:37:43;;;;;;;70.85;27.52;;;;;;;;;;5034418;28;20806;-60
2021/07/14 03:40:12;;;;;;;75.05;27.25;;;;;;;;;;5034208;28;20084;-60
2021/07/14 03:42:38;;;;;;;73.60;26.90;;;;;;;;;;5034530;28;20033;-60
2021/07/14 03:45:07;;;;;;;69.70;26.67;;;;;;;;;;5031978;28;20029;-60
2021/07/14 03:47:35;;;;;;;68.70;28.30;;;;;;;;;;5033731;28;20033;-61
2021/07/14 03:50:04;;;;;;;71.00;27.27;;;;;;;;;;5019115;28;20052;-61
2021/07/14 03:52:34;;;;;;;60.35;26.30;;;;;;;;;;5000921;28;20033;-60
2021/07/14 03:55:04;;;;;;;69.60;27.25;;;;;;;;;;5033630;28;20028;-60
2021/07/14 03:57:29;;;;;;;79.03;28.40;;;;;;;;;;5015786;28;20037;-60
2021/07/14 03:59:57;;;;;;;68.45;28.25;;;;;;;;;;5016279;28;20057;-59
2021/07/14 04:02:23;;;;;;;72.68;27.73;;;;;;;;;;5031730;28;20145;-61
2021/07/14 04:04:53;;;;;;;87.75;29.25;;;;;;;;;;5034153;28;20029;-61
2021/07/14 04:07:26;;;;;;;64.75;27.95;;;;;;;;;;5014742;28;21057;-61
2021/07/14 04:09:52;;;;;;;65.07;28.25;;;;;;;;;;5032116;28;20595;-60
2021/07/14 04:12:19;;;;;;;61.78;27.13;;;;;;;;;;5035155;28;20048;-60
2021/07/14 04:14:45;;;;;;;79.25;28.05;;;;;;;;;;4996685;28;20853;-60
2021/07/14 04:17:14;;;;;;;64.78;27.77;;;;;;;;;;5017235;28;20033;-60
2021/07/14 04:19:42;;;;;;;67.43;27.58;;;;;;;;;;4998171;28;20559;-60
2021/07/14 04:22:08;;;;;;;69.38;29.10;;;;;;;;;;4999641;28;20143;-59
2021/07/14 04:24:33;;;;;;;64.72;26.40;;;;;;;;;;5015697;28;20087;-60
2021/07/14 04:27:02;;;;;;;57.03;25.77;;;;;;;;;;4996371;28;20036;-60
2021/07/14 04:29:30;;;;;;;65.22;25.23;;;;;;;;;;5015204;28;20041;-60
2021/07/14 04:31:55;;;;;;;59.55;25.48;;;;;;;;;;5012707;28;20547;-60
2021/07/14 04:34:23;;;;;;;64.28;24.42;;;;;;;;;;4997200;28;20066;-61
2021/07/14 04:36:49;;;;;;;53.17;22.63;;;;;;;;;;5034020;28;20040;-61
2021/07/14 04:39:14;;;;;;;45.38;22.08;;;;;;;;;;5013963;28;20028;-61
2021/07/14 04:41:41;;;;;;;63.78;22.95;;;;;;;;;;5018989;28;20835;-59
2021/07/14 04:44:11;;;;;;;53.90;22.55;;;;;;;;;;4999193;28;20036;-60
2021/07/14 04:46:36;;;;;;;51.15;21.33;;;;;;;;;;5033323;28;20021;-60
2021/07/14 04:49:02;;;;;;;40.70;20.85;;;;;;;;;;5033505;28;20052;-60
2021/07/14 04:51:27;;;;;;;42.67;20.95;;;;;;;;;;5033563;28;20508;-60
2021/07/14 04:53:58;;;;;;;53.42;20.50;;;;;;;;;;5031977;28;20033;-61
2021/07/14 04:56:23;;;;;;;41.67;18.80;;;;;;;;;;4998567;28;20156;-60
2021/07/14 04:58:51;;;;;;;45.10;18.67;;;;;;;;;;4998014;28;20021;-60
2021/07/14 05:01:19;;;;;;;45.70;19.20;;;;;;;;;;5032248;28;20033;-60
2021/07/14 05:03:45;;;;;;;44.67;18.40;;;;;;;;;;5015201;28;20037;-60
2021/07/14 05:06:16;;;;;;;40.10;19.00;;;;;;;;;;5014423;28;20037;-59
2021/07/14 05:08:42;;;;;;;42.35;18.95;;;;;;;;;;5033204;28;20029;-60
2021/07/14 05:11:10;;;;;;;33.50;17.30;;;;;;;;;;4998032;28;20507;-62
2021/07/14 05:13:38;;;;;;;32.30;16.10;;;;;;;;;;5034101;28;20047;-60
2021/07/14 05:16:08;;;;;;;33.70;15.35;;;;;;;;;;5018418;28;20037;-60
2021/07/14 05:18:36;;;;;;;38.13;16.98;;;;;;;;;;5020124;28;20032;-59
2021/07/14 05:21:04;;;;;;;26.48;15.00;;;;;;;;;;5005882;28;20029;-60
2021/07/14 05:23:29;;;;;;;29.80;15.02;;;;;;;;;;5037729;28;20029;-61
2021/07/14 05:25:55;;;;;;;25.73;13.80;;;;;;;;;;5018182;28;20036;-60
2021/07/14 05:28:22;;;;;;;27.85;14.95;;;;;;;;;;5017615;28;20031;-61
2021/07/14 05:30:50;;;;;;;30.27;14.30;;;;;;;;;;5018687;28;20036;-61
2021/07/14 05:33:21;;;;;;;25.98;13.73;;;;;;;;;;5032671;28;20063;-60
2021/07/14 05:35:49;;;;;;;29.55;14.38;;;;;;;;;;5019602;28;20033;-60
2021/07/14 05:38:20;;;;;;;28.23;14.15;;;;;;;;;;5001655;28;20082;-59
2021/07/14 05:40:49;;;;;;;26.80;13.95;;;;;;;;;;5018895;28;20037;-61
2021/07/14 05:43:14;;;;;;;27.20;14.15;;;;;;;;;;5034405;28;21005;-59
2021/07/14 05:45:40;;;;;;;29.40;13.73;;;;;;;;;;5034809;28;20087;-60
2021/07/14 05:48:08;;;;;;;31.20;14.32;;;;;;;;;;5016559;28;20410;-60
2021/07/14 05:50:33;;;;;;;23.35;14.05;;;;;;;;;;5019780;28;20062;-60
2021/07/14 05:53:02;;;;;;;19.83;12.27;;;;;;;;;;5034598;28;20405;-60
2021/07/14 05:55:28;;;;;;;26.23;12.57;;;;;;;;;;5017204;28;20055;-59
2021/07/14 05:57:56;;;;;;;20.77;11.85;;;;;;;;;;5034227;28;20029;-59
2021/07/14 06:00:23;;;;;;;26.17;12.43;;;;;;;;;;5016410;28;20064;-59
2021/07/14 06:02:49;;;;;;;20.15;12.73;;;;;;;;;;5020416;28;20037;-59
2021/07/14 06:05:14;;;;;;;18.92;11.98;;;;;;;;;;5015661;28;20542;-60
2021/07/14 06:07:40;;;;;;;24.00;11.60;;;;;;;;;;5017241;28;20043;-60
2021/07/14 06:10:06;;;;;;;16.33;10.85;;;;;;;;;;5000486;28;20037;-61
2021/07/14 06:12:35;;;;;;;20.90;10.73;;;;;;;;;;5035101;28;20048;-60
2021/07/14 06:15:06;;;;;;;19.15;9.30;;;;;;;;;;5018171;28;20032;-60
2021/07/14 06:17:31;;;;;;;15.48;9.05;;;;;;;;;;5035122;28;20036;-60
2021/07/14 06:19:59;;;;;;;19.63;9.25;;;;;;;;;;5035854;28;20029;-60
2021/07/14 06:22:27;;;;;;;13.77;7.95;;;;;;;;;;5017689;28;20067;-60
2021/07/14 06:24:53;;;;;;;11.77;7.72;;;;;;;;;;5014484;28;20067;-60
2021/07/14 06:27:20;;;;;;;16.92;9.05;;;;;;;;;;5016613;28;20032;-60
2021/07/14 06:29:53;;;;;;;20.45;8.90;;;;;;;;;;4995534;28;20036;-60
2021/07/14 06:32:27;;;;;;;14.70;8.97;;;;;;;;;;5017134;28;20029;-60
2021/07/14 06:34:55;;;;;;;16.25;9.38;;;;;;;;;;5015116;28;20044;-61
2021/07/14 06:37:20;;;;;;;19.70;8.57;;;;;;;;;;5035264;28;20112;-60
2021/07/14 06:39:46;;;;;;;21.75;8.35;;;;;;;;;;5034592;28;20029;-60
2021/07/14 06:42:14;;;;;;;14.88;8.70;;;;;;;;;;5035215;28;20083;-59
2021/07/14 06:44:40;;;;;;;15.73;8.95;;;;;;;;;;5016183;28;20040;-59
2021/07/14 06:47:10;;;;;;;14.32;8.73;;;;;;;;;;5015775;28;20051;-59
2021/07/14 06:49:38;;;;;;;21.85;7.75;;;;;;;;;;5034879;28;20135;-60
2021/07/14 06:52:03;;;;;;;13.02;8.10;;;;;;;;;;5034852;28;20036;-59
2021/07/14 06:54:29;;;;;;;15.95;8.38;;;;;;;;;;5034944;28;20594;-59
2021/07/14 06:56:58;;;;;;;14.00;8.13;;;;;;;;;;5035408;28;20120;-59
2021/07/14 06:59:26;;;;;;;18.55;7.20;;;;;;;;;;5033788;28;20118;-59
2021/07/14 07:01:57;;;;;;;11.35;6.75;;;;;;;;;;4999871;28;20048;-60
2021/07/14 07:04:30;;;;;;;16.98;7.22;;;;;;;;;;5018218;28;20037;-58
2021/07/14 07:06:58;;;;;;;10.25;7.13;;;;;;;;;;5033532;28;20029;-60
2021/07/14 07:09:26;;;;;;;13.70;7.20;;;;;;;;;;5017063;28;20519;-60
2021/07/14 07:11:54;;;;;;;12.82;7.25;;;;;;;;;;5035504;28;20025;-59
2021/07/14 07:14:22;;;;;;;9.68;6.35;;;;;;;;;;5016474;28;20118;-60
2021/07/14 07:16:49;;;;;;;12.27;6.38;;;;;;;;;;5016788;28;20049;-60
2021/07/14 07:19:15;;;;;;;9.07;6.15;;;;;;;;;;5016542;28;20037;-59
2021/07/14 07:21:43;;;;;;;11.25;6.72;;;;;;;;;;5021169;28;20033;-60
2021/07/14 07:24:08;;;;;;;11.55;6.70;;;;;;;;;;5033714;28;20032;-59
2021/07/14 07:26:36;;;;;;;11.32;6.25;;;;;;;;;;5035294;28;20064;-59
2021/07/14 07:29:07;;;;;;;9.07;6.68;;;;;;;;;;4999988;28;20029;-59
2021/07/14 07:31:35;;;;;;;8.93;6.22;;;;;;;;;;5016272;28;20044;-59
2021/07/14 07:34:03;;;;;;;8.90;5.68;;;;;;;;;;5030855;28;20024;-59
2021/07/14 07:36:29;;;;;;;11.25;6.10;;;;;;;;;;5015335;28;20033;-59
2021/07/14 07:38:54;;;;;;;10.13;5.72;;;;;;;;;;5033698;28;20028;-60
2021/07/14 07:41:20;;;;;;;14.40;6.32;;;;;;;;;;5015681;28;20677;-59
2021/07/14 07:43:46;;;;;;;9.38;5.90;;;;;;;;;;5014755;28;20035;-60
2021/07/14 07:46:16;;;;;;;11.40;5.95;;;;;;;;;;5016394;28;20385;-60
2021/07/14 07:48:42;;;;;;;12.95;5.60;;;;;;;;;;5032698;28;20052;-59
2021/07/14 07:51:12;;;;;;;9.35;6.28;;;;;;;;;;5034601;28;20029;-60
2021/07/14 07:53:38;;;;;;;11.23;6.45;;;;;;;;;;5032839;28;20099;-60
2021/07/14 07:56:04;;;;;;;10.60;6.65;;;;;;;;;;5034177;28;20628;-60
2021/07/14 07:58:30;;;;;;;8.93;6.15;;;;;;;;;;5033470;28;20082;-59
2021/07/14 08:00:55;;;;;;;13.20;6.63;;;;;;;;;;5032785;28;20028;-60
2021/07/14 08:03:21;;;;;;;13.32;7.13;;;;;;;;;;5033490;28;20040;-60
2021/07/14 08:05:47;;;;;;;11.63;6.78;;;;;;;;;;5013864;28;20044;-60
2021/07/14 08:08:16;;;;;;;11.00;7.47;;;;;;;;;;5033828;28;20064;-61
2021/07/14 08:10:42;;;;;;;10.27;7.00;;;;;;;;;;5002158;28;20155;-59
2021/07/14 08:13:10;;;;;;;11.63;7.28;;;;;;;;;;5014215;28;20524;-60
2021/07/14 08:15:38;;;;;;;14.52;7.63;;;;;;;;;;5015627;28;20938;-59
2021/07/14 08:18:06;;;;;;;13.18;8.05;;;;;;;;;;5033072;28;21955;-59
2021/07/14 08:20:34;;;;;;;16.25;7.68;;;;;;;;;;5002150;28;20140;-61
2021/07/14 08:23:03;;;;;;;13.50;8.15;;;;;;;;;;5001356;28;20043;-60
2021/07/14 08:25:28;;;;;;;10.50;7.38;;;;;;;;;;5015886;28;20817;-62
2021/07/14 08:27:54;;;;;;;15.25;8.32;;;;;;;;;;5014980;28;20051;-61
2021/07/14 08:30:21;;;;;;;12.82;7.75;;;;;;;;;;5003019;28;20033;-61
2021/07/14 08:32:47;;;;;;;10.93;7.53;;;;;;;;;;5014536;28;21013;-60
2021/07/14 08:35:12;;;;;;;15.60;7.80;;;;;;;;;;5029829;28;20061;-59
2021/07/14 08:37:38;;;;;;;14.15;8.10;;;;;;;;;;5032165;28;20452;-60
2021/07/14 08:40:05;;;;;;;15.73;7.88;;;;;;;;;;5017080;28;20913;-59
2021/07/14 08:42:39;;;;;;;14.35;7.65;;;;;;;;;;5014643;28;20029;-59
2021/07/14 08:45:07;;;;;;;14.82;7.68;;;;;;;;;;5018734;28;20029;-60
2021/07/14 08:47:37;;;;;;;13.68;7.78;;;;;;;;;;5033288;28;20037;-62
2021/07/14 08:50:06;;;;;;;14.20;7.13;;;;;;;;;;5039371;28;20143;-61
2021/07/14 08:52:34;;;;;;;12.75;6.55;;;;;;;;;;5039794;28;20052;-61
2021/07/14 08:54:59;;;;;;;18.58;7.75;;;;;;;;;;5039022;28;20041;-61
2021/07/14 08:57:25;;;;;;;10.85;6.35;;;;;;;;;;5021208;28;20040;-61
2021/07/14 08:59:55;;;;;;;15.15;7.28;;;;;;;;;;5039393;28;20029;-61
2021/07/14 09:02:21;;;;;;;12.82;7.43;;;;;;;;;;5039788;28;20094;-60
2021/07/14 09:04:49;;;;;;;13.45;7.13;;;;;;;;;;5005502;28;20036;-60
2021/07/14 09:07:15;;;;;;;15.68;7.80;;;;;;;;;;5038425;28;20036;-61
2021/07/14 09:09:45;;;;;;;15.07;7.57;;;;;;;;;;5009775;28;20041;-59
2021/07/14 09:12:16;;;;;;;12.40;7.15;;;;;;;;;;5021722;28;20059;-60
2021/07/14 09:14:42;;;;;;;14.48;7.85;;;;;;;;;;5021571;28;20959;-61
2021/07/14 09:17:19;;;;;;;13.50;7.63;;;;;;;;;;5022122;28;20040;-60
2021/07/14 09:19:44;;;;;;;11.30;6.40;;;;;;;;;;5039421;28;20059;-60
2021/07/14 09:22:18;;;;;;;11.95;6.95;;;;;;;;;;5040125;28;20087;-59
2021/07/14 09:24:44;;;;;;;10.98;6.88;;;;;;;;;;5038448;28;20373;-61
2021/07/14 09:27:16;;;;;;;12.27;6.78;;;;;;;;;;5040367;28;20071;-59
2021/07/14 09:30:04;;;;;;;8.80;6.50;;;;;;;;;;5021477;28;20041;-59
2021/07/14 09:32:43;;;;;;;8.68;6.82;;;;;;;;;;5039830;28;20067;-62
2021/07/14 09:35:10;;;;;;;10.60;6.03;;;;;;;;;;5006617;28;20033;-60
2021/07/14 09:37:38;;;;;;;9.65;6.50;;;;;;;;;;5007530;28;20032;-60
2021/07/14 09:40:15;;;;;;;13.07;6.95;;;;;;;;;;5021060;28;20128;-60
2021/07/14 09:42:48;;;;;;;12.90;6.00;;;;;;;;;;5038153;28;20120;-61
2021/07/14 09:45:16;;;;;;;8.77;5.88;;;;;;;;;;5020588;28;20029;-59
2021/07/14 09:47:41;;;;;;;11.93;5.78;;;;;;;;;;5035795;28;21035;-61
2021/07/14 09:50:09;;;;;;;13.02;6.10;;;;;;;;;;5001689;28;20052;-60
2021/07/14 09:52:57;;;;;;;10.77;5.53;;;;;;;;;;5037921;28;20021;-60
2021/07/14 09:55:26;;;;;;;10.65;6.22;;;;;;;;;;5040111;28;20068;-60
2021/07/14 09:58:04;;;;;;;12.25;6.07;;;;;;;;;;5038338;28;20029;-60
2021/07/14 10:00:39;;;;;;;20.52;6.22;;;;;;;;;;5035683;28;20190;-60
2021/07/14 10:03:04;;;;;;;11.38;6.32;;;;;;;;;;5016981;28;20037;-60
2021/07/14 10:05:34;;;;;;;11.95;6.38;;;;;;;;;;5035588;28;20388;-60
2021/07/14 10:08:16;;;;;;;12.02;5.95;;;;;;;;;;5018525;28;20041;-60
2021/07/14 10:10:44;;;;;;;18.00;6.65;;;;;;;;;;5035427;28;20052;-59
2021/07/14 10:13:24;;;;;;;12.93;6.15;;;;;;;;;;5015597;28;20063;-60
2021/07/14 10:15:59;;;;;;;17.58;7.75;;;;;;;;;;5034477;28;20079;-60
2021/07/14 10:18:25;;;;;;;14.40;7.43;;;;;;;;;;5015569;28;20931;-60
2021/07/14 10:20:53;;;;;;;16.98;7.32;;;;;;;;;;5036988;28;20044;-60
2021/07/14 10:23:20;;;;;;;15.20;8.00;;;;;;;;;;5017618;28;20408;-60
2021/07/14 10:25:46;;;;;;;13.32;7.90;;;;;;;;;;5000930;28;20128;-61
2021/07/14 10:28:19;;;;;;;14.68;7.10;;;;;;;;;;5033997;28;20037;-60
2021/07/14 10:30:51;;;;;;;17.80;8.52;;;;;;;;;;5016643;28;20033;-60
2021/07/14 10:33:22;;;;;;;19.05;8.32;;;;;;;;;;5034250;28;20060;-61
2021/07/14 10:35:52;;;;;;;18.58;8.32;;;;;;;;;;5034973;28;20040;-60
2021/07/14 10:38:22;;;;;;;15.90;8.13;;;;;;;;;;5015016;28;20029;-62
2021/07/14 10:40:50;;;;;;;20.38;8.27;;;;;;;;;;5031875;28;20029;-61
2021/07/14 10:43:21;;;;;;;13.75;7.28;;;;;;;;;;5031701;28;20056;-61
2021/07/14 10:45:47;;;;;;;26.33;8.10;;;;;;;;;;5011964;28;20043;-60
2021/07/14 10:48:16;;;;;;;17.08;7.22;;;;;;;;;;5033633;28;20049;-59
2021/07/14 10:50:47;;;;;;;18.17;7.90;;;;;;;;;;5015810;28;20068;-60
2021/07/14 10:53:17;;;;;;;14.80;7.35;;;;;;;;;;5012714;28;20037;-61
2021/07/14 10:55:43;;;;;;;13.73;7.18;;;;;;;;;;4978509;28;20060;-60
2021/07/14 10:58:09;;;;;;;17.15;7.13;;;;;;;;;;4998886;28;20040;-61
2021/07/14 11:00:44;;;;;;;15.05;6.78;;;;;;;;;;5033607;28;20400;-61
2021/07/14 11:03:31;;;;;;;13.23;7.45;;;;;;;;;;5014689;28;20116;-60
2021/07/14 11:05:58;;;;;;;11.80;6.35;;;;;;;;;;5035703;28;20045;-59
2021/07/14 11:08:40;;;;;;;13.57;6.45;;;;;;;;;;5015842;28;20372;-61
2021/07/14 11:11:05;;;;;;;13.20;7.38;;;;;;;;;;5019852;28;20067;-60
2021/07/14 11:13:34;;;;;;;12.07;7.10;;;;;;;;;;5014064;28;20059;-60
2021/07/14 11:16:21;;;;;;;15.23;7.70;;;;;;;;;;5033136;28;20698;-61
2021/07/14 11:19:05;;;;;;;16.95;7.40;;;;;;;;;;5001068;28;20943;-62
2021/07/14 11:21:46;;;;;;;12.68;6.57;;;;;;;;;;5030758;28;20024;-61
2021/07/14 11:24:32;;;;;;;11.38;6.30;;;;;;;;;;4999679;28;20029;-61
2021/07/14 11:27:17;;;;;;;13.63;6.18;;;;;;;;;;5030063;28;20388;-62
2021/07/14 11:29:43;;;;;;;14.77;6.20;;;;;;;;;;5030522;28;20063;-59
2021/07/14 11:32:11;;;;;;;15.75;7.45;;;;;;;;;;4997630;28;20041;-60
2021/07/14 11:34:37;;;;;;;13.20;5.80;;;;;;;;;;5013599;28;21836;-61
2021/07/14 11:37:19;;;;;;;14.80;5.78;;;;;;;;;;4999361;28;20062;-61
2021/07/14 11:39:49;;;;;;;10.48;4.35;;;;;;;;;;5027315;28;25532;-61
2021/07/14 11:42:20;;;;;;;8.80;5.07;;;;;;;;;;5034388;28;20037;-60
2021/07/14 11:44:52;;;;;;;10.45;4.72;;;;;;;;;;5030405;28;20120;-60
2021/07/14 11:47:33;;;;;;;12.60;5.28;;;;;;;;;;5032962;28;20083;-61
2021/07/14 11:50:02;;;;;;;13.40;5.15;;;;;;;;;;5008857;28;20040;-61
2021/07/14 11:52:40;;;;;;;9.38;4.15;;;;;;;;;;5013579;28;20067;-62
2021/07/14 11:55:23;;;;;;;8.40;4.47;;;;;;;;;;5010695;28;20045;-62
2021/07/14 11:57:53;;;;;;;8.27;4.40;;;;;;;;;;5009640;28;20037;-62
2021/07/14 12:00:35;;;;;;;10.38;5.22;;;;;;;;;;5009592;28;20674;-63
2021/07/14 12:03:01;;;;;;;7.35;4.25;;;;;;;;;;5008572;28;20467;-61
2021/07/14 12:05:31;;;;;;;10.02;4.85;;;;;;;;;;4985344;28;20048;-60
2021/07/14 12:08:10;;;;;;;9.05;4.75;;;;;;;;;;5011994;28;20376;-59
2021/07/14 12:10:39;;;;;;;12.90;5.03;;;;;;;;;;5011734;28;20407;-62
2021/07/14 12:13:06;;;;;;;9.88;4.88;;;;;;;;;;5010747;28;20720;-61
2021/07/14 12:15:45;;;;;;;9.40;4.72;;;;;;;;;;4981678;28;20044;-62
2021/07/14 12:18:12;;;;;;;9.10;4.68;;;;;;;;;;5011362;28;20033;-61
2021/07/14 12:20:39;;;;;;;9.57;4.78;;;;;;;;;;5009907;28;20120;-61
2021/07/14 12:23:14;;;;;;;9.38;3.88;;;;;;;;;;5006335;28;20122;-61
2021/07/14 12:25:43;;;;;;;5.85;4.13;;;;;;;;;;5012370;28;20033;-60
2021/07/14 12:28:12;;;;;;;9.05;4.57;;;;;;;;;;5009967;28;20126;-62
2021/07/14 12:30:46;;;;;;;8.10;4.75;;;;;;;;;;5011371;28;20043;-61
2021/07/14 12:33:11;;;;;;;10.60;4.97;;;;;;;;;;5010355;28;20037;-61
2021/07/14 12:35:39;;;;;;;8.27;4.35;;;;;;;;;;5011095;28;20052;-60
2021/07/14 12:38:07;;;;;;;8.63;4.97;;;;;;;;;;5012262;28;20037;-60
2021/07/14 12:40:33;;;;;;;8.98;4.93;;;;;;;;;;4994268;28;20784;-61
2021/07/14 12:43:01;;;;;;;9.63;5.18;;;;;;;;;;5007740;28;20033;-61
2021/07/14 12:45:30;;;;;;;10.35;5.03;;;;;;;;;;5010259;28;20683;-60
2021/07/14 12:47:59;;;;;;;8.35;5.00;;;;;;;;;;4999751;28;20029;-63
2021/07/14 12:50:27;;;;;;;7.70;4.45;;;;;;;;;;5030646;28;20103;-61
2021/07/14 12:53:00;;;;;;;7.82;4.40;;;;;;;;;;5007051;28;20037;-62
2021/07/14 12:55:28;;;;;;;10.57;4.07;;;;;;;;;;5027143;28;20055;-62
2021/07/14 12:58:05;;;;;;;7.45;3.97;;;;;;;;;;5029094;28;20056;-61
2021/07/14 13:00:34;;;;;;;9.95;3.85;;;;;;;;;;5029212;28;20337;-63
2021/07/14 13:03:04;;;;;;;6.32;3.78;;;;;;;;;;5029448;28;20044;-62
2021/07/14 13:05:32;;;;;;;8.43;4.15;;;;;;;;;;5013600;28;20040;-62
2021/07/14 13:08:12;;;;;;;7.75;4.25;;;;;;;;;;5029106;28;20480;-63
2021/07/14 13:10:41;;;;;;;7.60;4.32;;;;;;;;;;5010910;28;20041;-62
2021/07/14 13:13:13;;;;;;;5.72;3.92;;;;;;;;;;5027930;28;20605;-63
2021/07/14 13:15:39;;;;;;;9.02;4.70;;;;;;;;;;5031463;28;20037;-61
2021/07/14 13:18:14;;;;;;;8.82;4.68;;;;;;;;;;5030526;28;20792;-61
2021/07/14 13:20:43;;;;;;;10.38;4.35;;;;;;;;;;5030507;28;20036;-61
2021/07/14 13:23:10;;;;;;;10.25;4.45;;;;;;;;;;5012040;28;20574;-61
2021/07/14 13:25:50;;;;;;;11.80;4.53;;;;;;;;;;5027133;28;20029;-62
2021/07/14 13:28:18;;;;;;;6.50;3.63;;;;;;;;;;4984311;28;20021;-62
2021/07/14 13:30:58;;;;;;;8.02;3.85;;;;;;;;;;5025247;28;20035;-62
2021/07/14 13:33:39;;;;;;;6.95;3.90;;;;;;;;;;5030375;28;20063;-62
2021/07/14 13:36:11;;;;;;;11.20;4.20;;;;;;;;;;5014596;28;20028;-61
2021/07/14 13:38:38;;;;;;;7.95;3.65;;;;;;;;;;5015679;28;20056;-61
2021/07/14 13:41:06;;;;;;;7.95;3.70;;;;;;;;;;5012436;28;20063;-63
2021/07/14 13:43:47;;;;;;;9.77;4.32;;;;;;;;;;5012575;28;20043;-60
2021/07/14 13:46:32;;;;;;;10.63;4.72;;;;;;;;;;5034363;28;20068;-62
2021/07/14 13:49:06;;;;;;;5.97;4.38;;;;;;;;;;5012171;28;20067;-62
2021/07/14 13:51:51;;;;;;;9.48;4.18;;;;;;;;;;5032162;28;20032;-62
2021/07/14 13:54:19;;;;;;;13.27;4.93;;;;;;;;;;5032579;28;20206;-62
2021/07/14 13:57:02;;;;;;;12.10;4.90;;;;;;;;;;5016474;28;20041;-62
2021/07/14 13:59:31;;;;;;;7.32;3.95;;;;;;;;;;5012050;28;20120;-62
2021/07/14 14:02:13;;;;;;;7.22;4.53;;;;;;;;;;5019497;28;20029;-62
2021/07/14 14:04:45;;;;;;;9.23;4.75;;;;;;;;;;5003212;28;20037;-63
2021/07/14 14:07:17;;;;;;;8.82;4.82;;;;;;;;;;5033084;28;20055;-61
2021/07/14 14:09:48;;;;;;;9.30;4.72;;;;;;;;;;5003667;28;20033;-61
2021/07/14 14:12:14;;;;;;;9.80;4.85;;;;;;;;;;5033412;28;20144;-60
2021/07/14 14:14:40;;;;;;;10.52;4.68;;;;;;;;;;5012665;28;20060;-61
2021/07/14 14:17:05;;;;;;;9.27;5.22;;;;;;;;;;5014113;28;20753;-61
2021/07/14 14:19:33;;;;;;;11.30;5.18;;;;;;;;;;5031649;28;20044;-62
2021/07/14 14:22:02;;;;;;;7.00;4.70;;;;;;;;;;5015517;28;20396;-63
2021/07/14 14:24:31;;;;;;;9.00;4.70;;;;;;;;;;5033641;28;20430;-62
2021/07/14 14:27:02;;;;;;;10.65;5.10;;;;;;;;;;5027348;28;20033;-62
2021/07/14 14:29:28;;;;;;;13.63;4.97;;;;;;;;;;4986842;28;20056;-62
2021/07/14 14:31:53;;;;;;;10.82;4.93;;;;;;;;;;4998109;28;20151;-62
2021/07/14 14:34:19;;;;;;;11.63;4.78;;;;;;;;;;5015112;28;20032;-63
2021/07/14 14:37:13;;;;;;;8.02;4.85;;;;;;;;;;5032651;28;20079;-63
2021/07/14 14:39:41;;;;;;;16.33;4.93;;;;;;;;;;5030733;28;20032;-62
2021/07/14 14:42:06;;;;;;;10.77;4.95;;;;;;;;;;5012934;28;20082;-61
2021/07/14 14:44:34;;;;;;;11.13;4.55;;;;;;;;;;4987515;28;20037;-63
2021/07/14 14:46:59;;;;;;;9.95;4.10;;;;;;;;;;5029810;28;20623;-62
2021/07/14 14:49:29;;;;;;;6.43;4.25;;;;;;;;;;5299876;22;20089;-62
2021/07/14 14:51:57;;;;;;;7.38;4.07;;;;;;;;;;5034700;28;20154;-63